sensor_id;sensor_type;location;lat;lon;timestamp;pressure;altitude;pressure_sealevel;temperature;humidity
78354;BME280;67629;46.040;18.232;2023-09-08T00:04:01;100215.38;;;18.47;60.02
78354;BME280;67629;46.040;18.232;2023-09-08T00:04:32;100214.53;;;18.47;60.19
78354;BME280;67629;46.040;18.232;2023-09-08T00:05:06;100221.19;;;18.41;60.76
78354;BME280;67629;46.040;18.232;2023-09-08T00:05:37;100220.91;;;18.37;60.25
78354;BME280;67629;46.040;18.232;2023-09-08T00:06:08;100212.59;;;18.37;60.50
78354;BME280;67629;46.040;18.232;2023-09-08T00:06:38;100222.03;;;18.36;60.59
78354;BME280;67629;46.040;18.232;2023-09-08T00:07:09;100216.78;;;18.30;60.95
78354;BME280;67629;46.040;18.232;2023-09-08T00:07:39;100208.50;;;18.25;61.17
78354;BME280;67629;46.040;18.232;2023-09-08T00:08:10;100219.28;;;18.26;61.31
78354;BME280;67629;46.040;18.232;2023-09-08T00:08:41;100213.19;;;18.29;60.54
78354;BME280;67629;46.040;18.232;2023-09-08T00:09:11;100213.47;;;18.28;60.57
78354;BME280;67629;46.040;18.232;2023-09-08T00:09:42;100213.72;;;18.31;60.21
78354;BME280;67629;46.040;18.232;2023-09-08T00:10:12;100217.06;;;18.28;60.79
78354;BME280;67629;46.040;18.232;2023-09-08T00:10:43;100219.28;;;18.26;60.68
78354;BME280;67629;46.040;18.232;2023-09-08T00:11:14;100219.28;;;18.26;60.80
78354;BME280;67629;46.040;18.232;2023-09-08T00:11:44;100207.69;;;18.24;60.40
78354;BME280;67629;46.040;18.232;2023-09-08T00:12:15;100215.41;;;18.27;60.33
78354;BME280;67629;46.040;18.232;2023-09-08T00:12:46;100217.63;;;18.20;61.87
78354;BME280;67629;46.040;18.232;2023-09-08T00:13:17;100222.91;;;18.21;60.80
78354;BME280;67629;46.040;18.232;2023-09-08T00:15:01;100216.25;;;18.28;60.83
78354;BME280;67629;46.040;18.232;2023-09-08T00:15:34;100216.78;;;18.30;60.27
78354;BME280;67629;46.040;18.232;2023-09-08T00:16:05;100214.28;;;18.28;59.45
78354;BME280;67629;46.040;18.232;2023-09-08T00:16:38;100217.06;;;18.33;60.13
78354;BME280;67629;46.040;18.232;2023-09-08T00:17:09;100215.41;;;18.27;60.14
78354;BME280;67629;46.040;18.232;2023-09-08T00:17:40;100217.59;;;18.35;59.67
78354;BME280;67629;46.040;18.232;2023-09-08T00:18:11;100221.75;;;18.38;59.61
78354;BME280;67629;46.040;18.232;2023-09-08T00:18:42;100222.56;;;18.43;59.79
78354;BME280;67629;46.040;18.232;2023-09-08T00:19:13;100209.03;;;18.42;59.57
78354;BME280;67629;46.040;18.232;2023-09-08T00:19:43;100210.13;;;18.41;59.47
78354;BME280;67629;46.040;18.232;2023-09-08T00:20:14;100215.94;;;18.44;59.44
78354;BME280;67629;46.040;18.232;2023-09-08T00:20:45;100220.06;;;18.47;59.26
78354;BME280;67629;46.040;18.232;2023-09-08T00:21:16;100213.69;;;18.46;59.52
78354;BME280;67629;46.040;18.232;2023-09-08T00:21:46;100221.72;;;18.48;59.37
78354;BME280;67629;46.040;18.232;2023-09-08T00:22:17;100206.50;;;18.45;59.57
78354;BME280;67629;46.040;18.232;2023-09-08T00:22:48;100217.03;;;18.48;59.67
78354;BME280;67629;46.040;18.232;2023-09-08T00:23:18;100211.22;;;18.50;59.36
78354;BME280;67629;46.040;18.232;2023-09-08T00:23:49;100208.47;;;18.50;59.48
78354;BME280;67629;46.040;18.232;2023-09-08T00:24:20;100219.81;;;18.53;58.97
78354;BME280;67629;46.040;18.232;2023-09-08T00:25:24;100212.03;;;18.55;59.12
78354;BME280;67629;46.040;18.232;2023-09-08T00:25:55;100204.84;;;18.54;58.95
78354;BME280;67629;46.040;18.232;2023-09-08T00:26:25;100214.25;;;18.58;59.02
78354;BME280;67629;46.040;18.232;2023-09-08T00:26:56;100224.22;;;18.59;59.12
78354;BME280;67629;46.040;18.232;2023-09-08T00:27:26;100208.97;;;18.57;59.18
78354;BME280;67629;46.040;18.232;2023-09-08T00:27:57;100210.38;;;18.59;58.93
78354;BME280;67629;46.040;18.232;2023-09-08T00:28:28;100215.91;;;18.59;59.15
78354;BME280;67629;46.040;18.232;2023-09-08T00:28:58;100215.91;;;18.59;58.95
78354;BME280;67629;46.040;18.232;2023-09-08T00:29:29;100218.13;;;18.57;59.03
78354;BME280;67629;46.040;18.232;2023-09-08T00:30:00;100214.25;;;18.58;58.95
78354;BME280;67629;46.040;18.232;2023-09-08T00:30:32;100219.22;;;18.61;58.95
78354;BME280;67629;46.040;18.232;2023-09-08T00:31:02;100216.47;;;18.56;59.20
78354;BME280;67629;46.040;18.232;2023-09-08T00:31:33;100207.03;;;18.57;59.34
78354;BME280;67629;46.040;18.232;2023-09-08T00:32:04;100216.44;;;18.61;58.83
78354;BME280;67629;46.040;18.232;2023-09-08T00:32:35;100209.81;;;18.57;59.36
78354;BME280;67629;46.040;18.232;2023-09-08T00:33:05;100205.41;;;18.51;59.70
78354;BME280;67629;46.040;18.232;2023-09-08T00:33:39;100219.81;;;18.53;59.41
78354;BME280;67629;46.040;18.232;2023-09-08T00:34:11;100213.16;;;18.54;59.26
78354;BME280;67629;46.040;18.232;2023-09-08T00:40:05;100221.47;;;18.49;59.89
78354;BME280;67629;46.040;18.232;2023-09-08T00:40:37;100214.53;;;18.52;59.71
78354;BME280;67629;46.040;18.232;2023-09-08T00:41:08;100220.63;;;18.54;59.77
78354;BME280;67629;46.040;18.232;2023-09-08T00:41:38;100215.91;;;18.54;59.52
78354;BME280;67629;46.040;18.232;2023-09-08T00:42:09;100216.75;;;18.55;59.66
78354;BME280;67629;46.040;18.232;2023-09-08T00:42:40;100213.41;;;18.58;59.48
78354;BME280;67629;46.040;18.232;2023-09-08T00:43:10;100209.81;;;18.57;59.53
78354;BME280;67629;46.040;18.232;2023-09-08T00:43:41;100216.72;;;18.60;59.54
78354;BME280;67629;46.040;18.232;2023-09-08T00:44:12;100213.16;;;18.59;59.38
78354;BME280;67629;46.040;18.232;2023-09-08T00:44:42;100220.03;;;18.57;59.35
78354;BME280;67629;46.040;18.232;2023-09-08T00:45:13;100210.94;;;18.56;59.13
78354;BME280;67629;46.040;18.232;2023-09-08T00:45:45;100219.25;;;18.56;59.76
78354;BME280;67629;46.040;18.232;2023-09-08T00:46:17;100221.72;;;18.58;59.23
78354;BME280;67629;46.040;18.232;2023-09-08T00:46:48;100218.13;;;18.57;59.34
78354;BME280;67629;46.040;18.232;2023-09-08T00:47:18;100214.50;;;18.57;59.78
78354;BME280;67629;46.040;18.232;2023-09-08T00:47:49;100210.38;;;18.54;59.53
78354;BME280;67629;46.040;18.232;2023-09-08T00:48:21;100208.16;;;18.51;59.52
78354;BME280;67629;46.040;18.232;2023-09-08T00:48:51;100205.97;;;18.48;60.10
78354;BME280;67629;46.040;18.232;2023-09-08T00:51:28;100219.53;;;18.45;60.74
78354;BME280;67629;46.040;18.232;2023-09-08T00:51:59;100215.66;;;18.41;60.80
78354;BME280;67629;46.040;18.232;2023-09-08T00:52:29;100209.56;;;18.39;61.12
78354;BME280;67629;46.040;18.232;2023-09-08T00:53:06;100213.16;;;18.34;61.59
78354;BME280;67629;46.040;18.232;2023-09-08T00:53:37;100210.41;;;18.29;61.36
78354;BME280;67629;46.040;18.232;2023-09-08T00:54:08;100216.78;;;18.30;62.03
78354;BME280;67629;46.040;18.232;2023-09-08T00:54:39;100212.09;;;18.25;62.30
78354;BME280;67629;46.040;18.232;2023-09-08T00:55:10;100209.34;;;18.25;61.67
78354;BME280;67629;46.040;18.232;2023-09-08T00:55:40;100215.44;;;18.22;62.06
78354;BME280;67629;46.040;18.232;2023-09-08T00:56:11;100215.44;;;18.22;61.70
78354;BME280;67629;46.040;18.232;2023-09-08T00:56:42;100212.66;;;18.22;62.19
78354;BME280;67629;46.040;18.232;2023-09-08T00:57:13;100199.41;;;18.19;62.32
78354;BME280;67629;46.040;18.232;2023-09-08T00:57:43;100211.56;;;18.18;62.39
78354;BME280;67629;46.040;18.232;2023-09-08T00:58:14;100209.88;;;18.17;62.27
78354;BME280;67629;46.040;18.232;2023-09-08T00:58:46;100212.41;;;18.13;62.82
78354;BME280;67629;46.040;18.232;2023-09-08T00:59:16;100213.22;;;18.09;63.02
78354;BME280;67629;46.040;18.232;2023-09-08T00:59:47;100213.22;;;18.09;62.50
78354;BME280;67629;46.040;18.232;2023-09-08T01:00:18;100211.28;;;18.09;62.80
78354;BME280;67629;46.040;18.232;2023-09-08T01:01:49;100208.81;;;18.08;62.61
78354;BME280;67629;46.040;18.232;2023-09-08T01:02:21;100203.28;;;18.08;62.61
78354;BME280;67629;46.040;18.232;2023-09-08T01:02:52;100211.59;;;18.08;62.05
78354;BME280;67629;46.040;18.232;2023-09-08T01:03:24;100206.88;;;18.08;61.82
78354;BME280;67629;46.040;18.232;2023-09-08T01:03:55;100206.06;;;18.08;62.19
78354;BME280;67629;46.040;18.232;2023-09-08T01:04:25;100200.78;;;18.11;61.78
78354;BME280;67629;46.040;18.232;2023-09-08T01:04:56;100194.69;;;18.14;62.03
78354;BME280;67629;46.040;18.232;2023-09-08T01:05:30;100203.84;;;18.10;61.76
78354;BME280;67629;46.040;18.232;2023-09-08T01:06:01;100204.38;;;18.12;61.79
78354;BME280;67629;46.040;18.232;2023-09-08T01:06:33;100206.06;;;18.08;62.08
78354;BME280;67629;46.040;18.232;2023-09-08T01:07:04;100203.84;;;18.05;62.41
78354;BME280;67629;46.040;18.232;2023-09-08T01:07:35;100199.41;;;18.04;62.61
78354;BME280;67629;46.040;18.232;2023-09-08T01:08:09;100208.25;;;18.06;62.01
78354;BME280;67629;46.040;18.232;2023-09-08T01:08:40;100205.47;;;18.11;62.00
78354;BME280;67629;46.040;18.232;2023-09-08T01:09:11;100193.84;;;18.14;61.76
78354;BME280;67629;46.040;18.232;2023-09-08T01:09:45;100205.50;;;18.16;61.19
78354;BME280;67629;46.040;18.232;2023-09-08T01:10:16;100208.25;;;18.16;61.38
78354;BME280;67629;46.040;18.232;2023-09-08T01:10:47;100203.81;;;18.15;61.65
78354;BME280;67629;46.040;18.232;2023-09-08T01:11:19;100202.16;;;18.14;61.92
78354;BME280;67629;46.040;18.232;2023-09-08T01:12:54;100201.06;;;18.15;62.04
78354;BME280;67629;46.040;18.232;2023-09-08T01:13:25;100199.38;;;18.14;61.99
78354;BME280;67629;46.040;18.232;2023-09-08T01:13:56;100203.84;;;18.10;62.16
78354;BME280;67629;46.040;18.232;2023-09-08T01:14:27;100206.59;;;18.10;62.27
78354;BME280;67629;46.040;18.232;2023-09-08T01:14:57;100207.97;;;18.12;61.76
78354;BME280;67629;46.040;18.232;2023-09-08T01:15:28;100200.50;;;18.13;62.23
78354;BME280;67629;46.040;18.232;2023-09-08T01:15:59;100204.13;;;18.13;61.84
78354;BME280;67629;46.040;18.232;2023-09-08T01:16:29;100199.13;;;18.15;61.87
78354;BME280;67629;46.040;18.232;2023-09-08T01:17:00;100206.03;;;18.18;61.54
78354;BME280;67629;46.040;18.232;2023-09-08T01:17:31;100203.56;;;18.16;61.65
78354;BME280;67629;46.040;18.232;2023-09-08T01:18:01;100193.59;;;18.15;61.80
78354;BME280;67629;46.040;18.232;2023-09-08T01:18:32;100198.03;;;18.16;61.90
78354;BME280;67629;46.040;18.232;2023-09-08T01:19:04;100204.66;;;18.15;61.78
78354;BME280;67629;46.040;18.232;2023-09-08T01:19:37;100201.03;;;18.20;61.63
78354;BME280;67629;46.040;18.232;2023-09-08T01:20:51;100204.34;;;18.17;61.72
78354;BME280;67629;46.040;18.232;2023-09-08T01:22:11;100202.44;;;18.12;62.35
78354;BME280;67629;46.040;18.232;2023-09-08T01:24:20;100205.75;;;18.09;61.84
78354;BME280;67629;46.040;18.232;2023-09-08T01:25:12;100200.53;;;18.08;62.21
78354;BME280;67629;46.040;18.232;2023-09-08T01:25:59;100203.56;;;18.01;62.64
78354;BME280;67629;46.040;18.232;2023-09-08T01:26:41;100206.03;;;18.03;63.17
78354;BME280;67629;46.040;18.232;2023-09-08T01:27:12;100198.31;;;18.00;62.84
78354;BME280;67629;46.040;18.232;2023-09-08T01:27:47;100198.88;;;17.92;63.36
78354;BME280;67629;46.040;18.232;2023-09-08T01:28:20;100203.03;;;17.89;63.89
78354;BME280;67629;46.040;18.232;2023-09-08T01:28:53;100201.34;;;17.88;64.08
78354;BME280;67629;46.040;18.232;2023-09-08T01:29:25;100193.06;;;17.88;63.69
78354;BME280;67629;46.040;18.232;2023-09-08T01:29:57;100204.41;;;17.92;63.42
78354;BME280;67629;46.040;18.232;2023-09-08T01:30:29;100205.50;;;17.91;63.48
78354;BME280;67629;46.040;18.232;2023-09-08T01:31:04;100199.16;;;17.90;63.47
78354;BME280;67629;46.040;18.232;2023-09-08T01:31:35;100198.06;;;17.86;63.90
78354;BME280;67629;46.040;18.232;2023-09-08T01:32:06;100207.19;;;17.87;63.76
78354;BME280;67629;46.040;18.232;2023-09-08T01:37:09;100190.59;;;17.82;63.70
78354;BME280;67629;46.040;18.232;2023-09-08T01:37:41;100197.50;;;17.79;64.42
78354;BME280;67629;46.040;18.232;2023-09-08T01:38:12;100194.47;;;17.81;64.16
78354;BME280;67629;46.040;18.232;2023-09-08T01:38:43;100194.44;;;17.86;63.71
78354;BME280;67629;46.040;18.232;2023-09-08T01:39:13;100199.16;;;17.85;63.58
78354;BME280;67629;46.040;18.232;2023-09-08T01:39:44;100199.16;;;17.85;63.39
78354;BME280;67629;46.040;18.232;2023-09-08T01:40:15;100189.75;;;17.86;63.25
78354;BME280;67629;46.040;18.232;2023-09-08T01:40:45;100197.22;;;17.86;63.77
78354;BME280;67629;46.040;18.232;2023-09-08T01:41:16;100189.75;;;17.86;63.33
78354;BME280;67629;46.040;18.232;2023-09-08T01:41:47;100195.00;;;17.83;63.83
78354;BME280;67629;46.040;18.232;2023-09-08T01:42:17;100198.06;;;17.81;64.01
78354;BME280;67629;46.040;18.232;2023-09-08T01:42:48;100191.69;;;17.81;64.42
78354;BME280;67629;46.040;18.232;2023-09-08T01:43:19;100192.53;;;17.81;63.84
78354;BME280;67629;46.040;18.232;2023-09-08T01:43:50;100193.91;;;17.79;64.42
78354;BME280;67629;46.040;18.232;2023-09-08T01:44:21;100192.78;;;17.80;64.40
78354;BME280;67629;46.040;18.232;2023-09-08T01:44:51;100194.47;;;17.81;64.24
78354;BME280;67629;46.040;18.232;2023-09-08T01:45:22;100189.47;;;17.83;63.63
78354;BME280;67629;46.040;18.232;2023-09-08T01:45:53;100201.66;;;17.82;64.12
78354;BME280;67629;46.040;18.232;2023-09-08T01:46:23;100190.03;;;17.80;64.51
78354;BME280;67629;46.040;18.232;2023-09-08T01:46:54;100195.00;;;17.83;63.96
78354;BME280;67629;46.040;18.232;2023-09-08T01:47:29;100193.34;;;17.87;63.75
78354;BME280;67629;46.040;18.232;2023-09-08T01:48:00;100185.91;;;17.87;63.72
78354;BME280;67629;46.040;18.232;2023-09-08T01:48:31;100196.38;;;17.85;63.87
78354;BME280;67629;46.040;18.232;2023-09-08T01:49:01;100194.75;;;17.84;63.82
78354;BME280;67629;46.040;18.232;2023-09-08T01:49:32;100201.38;;;17.83;64.18
78354;BME280;67629;46.040;18.232;2023-09-08T01:50:03;100197.78;;;17.78;64.45
78354;BME280;67629;46.040;18.232;2023-09-08T01:50:33;100195.56;;;17.75;64.75
78354;BME280;67629;46.040;18.232;2023-09-08T01:51:04;100190.88;;;17.75;64.40
78354;BME280;67629;46.040;18.232;2023-09-08T01:51:35;100201.38;;;17.73;64.84
78354;BME280;67629;46.040;18.232;2023-09-08T01:52:05;100196.41;;;17.75;64.35
78354;BME280;67629;46.040;18.232;2023-09-08T01:52:36;100194.19;;;17.77;64.70
78354;BME280;67629;46.040;18.232;2023-09-08T01:53:07;100191.72;;;17.76;64.29
78354;BME280;67629;46.040;18.232;2023-09-08T01:53:37;100195.28;;;17.71;64.98
78354;BME280;67629;46.040;18.232;2023-09-08T01:54:08;100201.09;;;17.70;64.77
78354;BME280;67629;46.040;18.232;2023-09-08T01:54:39;100193.91;;;17.69;65.07
78354;BME280;67629;46.040;18.232;2023-09-08T01:55:09;100196.41;;;17.70;64.67
78354;BME280;67629;46.040;18.232;2023-09-08T01:56:00;100194.75;;;17.69;64.92
78354;BME280;67629;46.040;18.232;2023-09-08T01:56:31;100198.03;;;17.71;64.25
78354;BME280;67629;46.040;18.232;2023-09-08T01:57:02;100201.66;;;17.72;64.01
78354;BME280;67629;46.040;18.232;2023-09-08T01:57:33;100200.00;;;17.71;64.44
78354;BME280;67629;46.040;18.232;2023-09-08T01:58:03;100202.19;;;17.69;64.69
78354;BME280;67629;46.040;18.232;2023-09-08T01:58:34;100199.16;;;17.65;65.14
78354;BME280;67629;46.040;18.232;2023-09-08T01:59:05;100197.78;;;17.68;64.59
78354;BME280;67629;46.040;18.232;2023-09-08T01:59:36;100202.19;;;17.63;64.82
78354;BME280;67629;46.040;18.232;2023-09-08T02:00:07;100206.59;;;17.59;65.47
78354;BME280;67629;46.040;18.232;2023-09-08T02:00:38;100201.91;;;17.55;65.69
78354;BME280;67629;46.040;18.232;2023-09-08T02:01:09;100205.19;;;17.52;65.67
78354;BME280;67629;46.040;18.232;2023-09-08T02:01:39;100197.75;;;17.52;65.94
78354;BME280;67629;46.040;18.232;2023-09-08T02:02:11;100203.00;;;17.49;66.25
78354;BME280;67629;46.040;18.232;2023-09-08T02:02:42;100207.13;;;17.41;67.21
78354;BME280;67629;46.040;18.232;2023-09-08T02:03:12;100200.50;;;17.47;65.47
78354;BME280;67629;46.040;18.232;2023-09-08T02:03:43;100201.06;;;17.49;65.32
78354;BME280;67629;46.040;18.232;2023-09-08T02:04:13;100197.22;;;17.55;64.98
78354;BME280;67629;46.040;18.232;2023-09-08T02:04:44;100203.84;;;17.59;65.19
78354;BME280;67629;46.040;18.232;2023-09-08T02:05:15;100193.09;;;17.58;65.05
78354;BME280;67629;46.040;18.232;2023-09-08T02:09:14;100197.22;;;17.65;64.50
78354;BME280;67629;46.040;18.232;2023-09-08T02:09:45;100206.63;;;17.64;65.23
78354;BME280;67629;46.040;18.232;2023-09-08T02:10:16;100193.63;;;17.60;65.32
78354;BME280;67629;46.040;18.232;2023-09-08T02:10:47;100195.00;;;17.57;65.24
78354;BME280;67629;46.040;18.232;2023-09-08T02:11:18;100193.91;;;17.58;65.87
78354;BME280;67629;46.040;18.232;2023-09-08T02:11:48;100191.16;;;17.58;65.50
78354;BME280;67629;46.040;18.232;2023-09-08T02:12:19;100199.44;;;17.58;65.28
78354;BME280;67629;46.040;18.232;2023-09-08T02:12:49;100198.31;;;17.59;65.16
78354;BME280;67629;46.040;18.232;2023-09-08T02:13:20;100195.56;;;17.59;65.54
78354;BME280;67629;46.040;18.232;2023-09-08T02:13:52;100192.25;;;17.57;65.52
78354;BME280;67629;46.040;18.232;2023-09-08T02:14:22;100196.69;;;17.58;65.53
78354;BME280;67629;46.040;18.232;2023-09-08T02:14:53;100190.84;;;17.50;66.09
78354;BME280;67629;46.040;18.232;2023-09-08T02:15:23;100191.94;;;17.49;66.38
78354;BME280;67629;46.040;18.232;2023-09-08T02:15:54;100190.81;;;17.45;66.32
78354;BME280;67629;46.040;18.232;2023-09-08T02:16:25;100199.41;;;17.43;66.42
78354;BME280;67629;46.040;18.232;2023-09-08T02:16:56;100199.41;;;17.43;66.60
78354;BME280;67629;46.040;18.232;2023-09-08T02:17:27;100199.41;;;17.43;66.09
78354;BME280;67629;46.040;18.232;2023-09-08T02:17:57;100203.25;;;17.42;66.28
78354;BME280;67629;46.040;18.232;2023-09-08T02:18:28;100198.31;;;17.44;65.87
78354;BME280;67629;46.040;18.232;2023-09-08T02:18:59;100196.09;;;17.46;65.90
78354;BME280;67629;46.040;18.232;2023-09-08T02:19:29;100191.94;;;17.49;65.67
78354;BME280;67629;46.040;18.232;2023-09-08T02:20:00;100195.53;;;17.49;65.82
78354;BME280;67629;46.040;18.232;2023-09-08T02:20:31;100195.25;;;17.51;65.89
78354;BME280;67629;46.040;18.232;2023-09-08T02:21:01;100189.19;;;17.49;65.44
78354;BME280;67629;46.040;18.232;2023-09-08T02:21:32;100188.63;;;17.47;65.47
78354;BME280;67629;46.040;18.232;2023-09-08T02:22:03;100202.44;;;17.52;65.75
78354;BME280;67629;46.040;18.232;2023-09-08T02:22:33;100188.34;;;17.48;66.14
78354;BME280;67629;46.040;18.232;2023-09-08T02:23:05;100191.69;;;17.50;65.84
78354;BME280;67629;46.040;18.232;2023-09-08T02:26:13;100202.44;;;17.47;66.68
78354;BME280;67629;46.040;18.232;2023-09-08T02:26:44;100205.47;;;17.45;65.94
78354;BME280;67629;46.040;18.232;2023-09-08T02:27:15;100191.94;;;17.49;66.03
78354;BME280;67629;46.040;18.232;2023-09-08T02:27:45;100201.59;;;17.51;65.94
78354;BME280;67629;46.040;18.232;2023-09-08T02:28:16;100201.59;;;17.51;65.73
78354;BME280;67629;46.040;18.232;2023-09-08T02:28:47;100198.31;;;17.49;65.85
78354;BME280;67629;46.040;18.232;2023-09-08T02:29:17;100195.56;;;17.54;65.89
78354;BME280;67629;46.040;18.232;2023-09-08T02:29:48;100195.53;;;17.49;66.29
78354;BME280;67629;46.040;18.232;2023-09-08T02:30:19;100199.38;;;17.48;66.31
78354;BME280;67629;46.040;18.232;2023-09-08T02:30:49;100189.72;;;17.46;66.20
78354;BME280;67629;46.040;18.232;2023-09-08T02:31:20;100197.47;;;17.44;66.51
78354;BME280;67629;46.040;18.232;2023-09-08T02:31:51;100196.94;;;17.42;66.37
78354;BME280;67629;46.040;18.232;2023-09-08T02:32:21;100200.78;;;17.41;66.95
78354;BME280;67629;46.040;18.232;2023-09-08T02:32:52;100192.50;;;17.41;67.11
78354;BME280;67629;46.040;18.232;2023-09-08T02:33:22;100189.44;;;17.37;67.20
78354;BME280;67629;46.040;18.232;2023-09-08T02:33:53;100195.25;;;17.41;66.83
78354;BME280;67629;46.040;18.232;2023-09-08T02:34:24;100194.41;;;17.40;66.57
78354;BME280;67629;46.040;18.232;2023-09-08T02:34:54;100197.47;;;17.44;66.31
78354;BME280;67629;46.040;18.232;2023-09-08T02:35:25;100199.69;;;17.47;65.81
78354;BME280;67629;46.040;18.232;2023-09-08T02:36:02;100199.69;;;17.52;65.98
78354;BME280;67629;46.040;18.232;2023-09-08T02:36:32;100191.69;;;17.50;66.03
78354;BME280;67629;46.040;18.232;2023-09-08T02:37:03;100196.63;;;17.48;66.06
78354;BME280;67629;46.040;18.232;2023-09-08T02:37:34;100190.84;;;17.50;66.23
78354;BME280;67629;46.040;18.232;2023-09-08T02:38:04;100194.41;;;17.45;66.29
78354;BME280;67629;46.040;18.232;2023-09-08T02:38:35;100191.66;;;17.40;67.08
78354;BME280;67629;46.040;18.232;2023-09-08T02:39:06;100200.78;;;17.41;66.18
78354;BME280;67629;46.040;18.232;2023-09-08T02:39:37;100190.56;;;17.41;66.49
78354;BME280;67629;46.040;18.232;2023-09-08T02:40:08;100197.75;;;17.47;66.26
78354;BME280;67629;46.040;18.232;2023-09-08T02:40:38;100196.63;;;17.48;65.61
78354;BME280;67629;46.040;18.232;2023-09-08T02:41:09;100191.94;;;17.49;65.35
78354;BME280;67629;46.040;18.232;2023-09-08T02:41:39;100196.91;;;17.52;65.57
78354;BME280;67629;46.040;18.232;2023-09-08T02:42:10;100195.56;;;17.54;65.31
78354;BME280;67629;46.040;18.232;2023-09-08T02:48:04;100199.16;;;17.65;65.11
78354;BME280;67629;46.040;18.232;2023-09-08T02:48:35;100200.81;;;17.61;65.57
78354;BME280;67629;46.040;18.232;2023-09-08T02:49:06;100195.00;;;17.62;65.29
78354;BME280;67629;46.040;18.232;2023-09-08T02:49:36;100191.41;;;17.62;65.24
78354;BME280;67629;46.040;18.232;2023-09-08T02:50:07;100195.84;;;17.63;65.34
78354;BME280;67629;46.040;18.232;2023-09-08T02:50:38;100195.84;;;17.58;65.61
78354;BME280;67629;46.040;18.232;2023-09-08T02:51:09;100200.53;;;17.62;65.34
78354;BME280;67629;46.040;18.232;2023-09-08T02:51:39;100196.38;;;17.65;64.84
78354;BME280;67629;46.040;18.232;2023-09-08T02:52:10;100193.91;;;17.69;64.69
78354;BME280;67629;46.040;18.232;2023-09-08T02:52:40;100188.38;;;17.69;64.77
78354;BME280;67629;46.040;18.232;2023-09-08T02:53:11;100196.13;;;17.67;64.93
78354;BME280;67629;46.040;18.232;2023-09-08T02:53:41;100201.91;;;17.65;65.19
78354;BME280;67629;46.040;18.232;2023-09-08T02:54:12;100200.00;;;17.60;65.77
78354;BME280;67629;46.040;18.232;2023-09-08T02:54:43;100189.78;;;17.61;65.13
78354;BME280;67629;46.040;18.232;2023-09-08T02:55:13;100191.69;;;17.65;64.91
78354;BME280;67629;46.040;18.232;2023-09-08T02:55:45;100201.66;;;17.67;65.12
78354;BME280;67629;46.040;18.232;2023-09-08T02:56:16;100195.84;;;17.73;64.86
78354;BME280;67629;46.040;18.232;2023-09-08T02:56:47;100187.81;;;17.72;64.70
78354;BME280;67629;46.040;18.232;2023-09-08T02:57:17;100191.72;;;17.71;64.62
78354;BME280;67629;46.040;18.232;2023-09-08T02:58:18;100201.38;;;17.73;64.25
78354;BME280;67629;46.040;18.232;2023-09-08T02:58:49;100182.03;;;17.73;64.38
78354;BME280;67629;46.040;18.232;2023-09-08T02:59:20;100188.38;;;17.74;64.59
78354;BME280;67629;46.040;18.232;2023-09-08T02:59:51;100185.59;;;17.74;64.54
78354;BME280;67629;46.040;18.232;2023-09-08T03:00:22;100189.75;;;17.71;64.43
78354;BME280;67629;46.040;18.232;2023-09-08T03:00:52;100190.88;;;17.75;64.27
78354;BME280;67629;46.040;18.232;2023-09-08T03:01:23;100193.91;;;17.74;64.34
78354;BME280;67629;46.040;18.232;2023-09-08T03:01:54;100190.06;;;17.70;65.27
78354;BME280;67629;46.040;18.232;2023-09-08T03:02:25;100197.22;;;17.65;64.92
78354;BME280;67629;46.040;18.232;2023-09-08T03:02:56;100191.97;;;17.64;64.77
78354;BME280;67629;46.040;18.232;2023-09-08T03:03:27;100196.41;;;17.70;64.86
78354;BME280;67629;46.040;18.232;2023-09-08T03:03:57;100187.25;;;17.80;64.17
78354;BME280;67629;46.040;18.232;2023-09-08T03:04:28;100187.25;;;17.80;64.02
78354;BME280;67629;46.040;18.232;2023-09-08T03:04:58;100193.09;;;17.78;64.25
78354;BME280;67629;46.040;18.232;2023-09-08T03:05:31;100189.50;;;17.78;64.21
78354;BME280;67629;46.040;18.232;2023-09-08T03:06:02;100195.00;;;17.78;64.67
78354;BME280;67629;46.040;18.232;2023-09-08T03:06:34;100190.88;;;17.75;63.98
78354;BME280;67629;46.040;18.232;2023-09-08T03:07:05;100195.56;;;17.80;63.99
78354;BME280;67629;46.040;18.232;2023-09-08T03:10:25;100187.81;;;17.77;64.55
78354;BME280;67629;46.040;18.232;2023-09-08T03:10:59;100187.03;;;17.76;64.22
78354;BME280;67629;46.040;18.232;2023-09-08T03:11:30;100189.22;;;17.74;64.46
78354;BME280;67629;46.040;18.232;2023-09-08T03:12:02;100188.38;;;17.74;64.82
78354;BME280;67629;46.040;18.232;2023-09-08T03:12:33;100194.19;;;17.67;64.48
78354;BME280;67629;46.040;18.232;2023-09-08T03:14:22;100185.34;;;17.70;64.37
78354;BME280;67629;46.040;18.232;2023-09-08T03:14:54;100183.16;;;17.67;64.74
78354;BME280;67629;46.040;18.232;2023-09-08T03:15:25;100188.09;;;17.65;64.77
78354;BME280;67629;46.040;18.232;2023-09-08T03:16:02;100193.38;;;17.61;64.98
78354;BME280;67629;46.040;18.232;2023-09-08T03:16:33;100191.69;;;17.60;65.15
78354;BME280;67629;46.040;18.232;2023-09-08T03:17:04;100180.06;;;17.53;65.73
78354;BME280;67629;46.040;18.232;2023-09-08T03:17:35;100186.19;;;17.60;65.25
78354;BME280;67629;46.040;18.232;2023-09-08T03:18:06;100184.81;;;17.58;65.25
78354;BME280;67629;46.040;18.232;2023-09-08T03:18:37;100187.81;;;17.56;65.03
78354;BME280;67629;46.040;18.232;2023-09-08T03:19:08;100184.81;;;17.58;64.72
78354;BME280;67629;46.040;18.232;2023-09-08T03:19:39;100191.69;;;17.60;65.19
78354;BME280;67629;46.040;18.232;2023-09-08T03:20:10;100191.16;;;17.58;64.80